createdAt,value
2018-02-15T00:00:51.804Z,38.90
2018-02-15T00:03:20.377Z,38.27
2018-02-15T00:05:49.930Z,26.27
2018-02-15T00:08:19.248Z,29.10
2018-02-15T00:10:48.022Z,29.77
2018-02-15T00:13:16.627Z,27.97
2018-02-15T00:15:45.180Z,24.50
2018-02-15T00:18:13.728Z,25.70
2018-02-15T00:20:43.096Z,24.10
2018-02-15T00:23:11.645Z,26.17
2018-02-15T00:25:40.192Z,28.47
2018-02-15T00:28:09.549Z,27.73
2018-02-15T00:30:38.093Z,29.73
2018-02-15T00:33:06.640Z,26.53
2018-02-15T00:35:36.205Z,32.97
2018-02-15T00:38:04.752Z,33.80
2018-02-15T00:40:34.066Z,31.43
2018-02-15T00:43:02.678Z,29.03
2018-02-15T00:45:31.224Z,31.90
2018-02-15T00:47:59.772Z,32.10
2018-02-15T00:50:28.460Z,30.17
2018-02-15T00:52:57.014Z,29.93
2018-02-15T00:55:25.560Z,26.53
2018-02-15T00:57:54.147Z,27.43
2018-02-15T01:00:22.703Z,41.83
2018-02-15T01:02:52.016Z,30.07
2018-02-15T01:05:21.472Z,112.37
2018-02-15T01:07:50.784Z,50.07
2018-02-15T01:10:19.325Z,36.10
2018-02-15T01:12:47.928Z,31.13
2018-02-15T01:15:16.476Z,30.33
2018-02-15T01:17:45.020Z,25.67
2018-02-15T01:20:13.887Z,26.03
2018-02-15T01:22:42.431Z,24.33
2018-02-15T01:25:10.977Z,26.10
2018-02-15T01:27:39.741Z,28.00
2018-02-15T01:30:08.284Z,26.20
2018-02-15T01:32:36.849Z,24.23
2018-02-15T01:35:06.510Z,25.70
2018-02-15T01:37:35.047Z,26.87
2018-02-15T01:40:04.359Z,22.00
2018-02-15T01:42:32.960Z,28.90
2018-02-15T01:45:01.501Z,23.00
2018-02-15T01:47:30.824Z,24.60
2018-02-15T01:50:05.084Z,37.37
2018-02-15T01:52:33.660Z,32.33
2018-02-15T01:55:02.970Z,28.67
2018-02-15T01:57:31.661Z,26.50
2018-02-15T02:00:00.203Z,25.57
2018-02-15T02:02:28.822Z,26.10
2018-02-15T02:04:57.704Z,28.13
2018-02-15T02:07:26.254Z,28.37
2018-02-15T02:09:54.803Z,27.90
2018-02-15T02:12:23.760Z,24.90
2018-02-15T02:14:52.346Z,30.17
2018-02-15T02:17:20.904Z,26.57
2018-02-15T02:19:49.521Z,26.27
2018-02-15T02:22:18.068Z,28.97
2018-02-15T02:24:46.622Z,26.63
2018-02-15T02:27:15.984Z,34.00
2018-02-15T02:29:44.536Z,35.43
2018-02-15T02:32:13.081Z,31.13
2018-02-15T02:34:42.769Z,29.77
2018-02-15T02:37:11.324Z,26.77
2018-02-15T02:39:39.884Z,27.97
2018-02-15T02:42:08.487Z,27.50
2018-02-15T02:44:37.040Z,25.27
2018-02-15T02:47:06.355Z,27.17
2018-02-15T02:49:34.988Z,26.30
2018-02-15T02:52:03.536Z,22.90
2018-02-15T02:54:32.088Z,21.53
2018-02-15T02:57:01.444Z,23.43
2018-02-15T02:59:29.996Z,22.30
2018-02-15T03:01:58.544Z,20.83
2018-02-15T03:04:27.906Z,20.23
2018-02-15T03:06:56.447Z,25.37
2018-02-15T03:09:25.084Z,20.93
2018-02-15T03:11:53.678Z,23.93
2018-02-15T03:14:22.239Z,27.37
2018-02-15T03:16:50.792Z,27.60
2018-02-15T03:19:19.384Z,29.17
2018-02-15T03:21:47.932Z,25.23
2018-02-15T03:24:17.248Z,23.83
2018-02-15T03:26:46.615Z,25.63
2018-02-15T03:29:15.172Z,24.00
2018-02-15T03:31:43.716Z,23.20
2018-02-15T03:34:12.543Z,38.73
2018-02-15T03:36:41.093Z,34.27
2018-02-15T03:39:09.643Z,39.70
2018-02-15T03:41:38.341Z,31.63
2018-02-15T03:44:07.664Z,34.10
2018-02-15T03:46:36.216Z,34.03
2018-02-15T03:49:05.173Z,31.33
2018-02-15T03:51:33.724Z,31.53
2018-02-15T03:54:02.272Z,28.63
2018-02-15T03:56:31.127Z,24.10
2018-02-15T03:58:59.672Z,28.27
2018-02-15T04:01:28.989Z,22.87
2018-02-15T04:03:57.740Z,25.23
2018-02-15T04:06:27.060Z,25.60
2018-02-15T04:08:55.611Z,31.27
2018-02-15T04:11:24.474Z,36.57
2018-02-15T04:13:53.020Z,41.33
2018-02-15T04:16:21.571Z,38.53
2018-02-15T04:18:51.040Z,34.77
2018-02-15T04:21:20.404Z,33.40
2018-02-15T04:23:48.957Z,31.53
2018-02-15T04:26:17.560Z,34.33
2018-02-15T04:28:46.884Z,32.07
2018-02-15T04:31:15.435Z,28.60
2018-02-15T04:33:45.204Z,31.43
2018-02-15T04:36:13.751Z,30.67
2018-02-15T04:38:42.296Z,35.60
2018-02-15T04:41:10.904Z,30.00
2018-02-15T04:43:40.218Z,33.73
2018-02-15T04:46:08.767Z,32.47
2018-02-15T04:48:37.378Z,29.33
2018-02-15T04:51:06.696Z,30.67
2018-02-15T04:53:35.248Z,29.70
2018-02-15T04:56:04.764Z,29.33
2018-02-15T04:58:34.076Z,34.07
2018-02-15T05:01:02.623Z,35.20
2018-02-15T05:03:31.234Z,34.03
2018-02-15T05:05:59.788Z,36.80
2018-02-15T05:08:28.349Z,37.03
2018-02-15T05:10:56.945Z,47.00
2018-02-15T05:13:25.508Z,37.87
2018-02-15T05:15:54.057Z,41.00
2018-02-15T05:18:22.656Z,36.97
2018-02-15T05:20:51.208Z,43.87
2018-02-15T05:23:20.544Z,52.33
2018-02-15T05:25:49.152Z,60.00
2018-02-15T05:28:17.705Z,91.13
2018-02-15T05:30:46.259Z,85.33
2018-02-15T05:33:15.724Z,72.70
2018-02-15T05:35:44.283Z,59.67
2018-02-15T05:38:12.840Z,55.40
2018-02-15T05:40:41.588Z,57.27
2018-02-15T05:43:10.907Z,67.07
2018-02-15T05:45:39.472Z,65.57
2018-02-15T05:48:08.832Z,48.40
2018-02-15T05:50:37.407Z,72.57
2018-02-15T05:53:05.969Z,133.17
2018-02-15T05:55:34.580Z,119.90
2018-02-15T05:58:03.136Z,102.47
2018-02-15T06:00:31.688Z,74.83
2018-02-15T06:03:01.064Z,55.27
2018-02-15T06:05:29.689Z,44.57
2018-02-15T06:07:58.239Z,54.60
2018-02-15T06:10:27.775Z,44.37
2018-02-15T06:12:56.327Z,53.73
2018-02-15T06:15:24.880Z,52.87
2018-02-15T06:17:53.488Z,46.97
2018-02-15T06:20:22.044Z,39.00
2018-02-15T06:22:50.596Z,44.53
2018-02-15T06:25:19.409Z,47.03
2018-02-15T06:27:47.965Z,44.10
2018-02-15T06:30:16.499Z,51.73
2018-02-15T06:32:45.270Z,68.27
2018-02-15T06:35:13.816Z,58.87
2018-02-15T06:37:42.364Z,50.67
2018-02-15T06:40:11.244Z,47.67
2018-02-15T06:42:39.811Z,47.10
2018-02-15T06:45:08.357Z,49.20
2018-02-15T06:47:37.172Z,35.80
2018-02-15T06:50:05.723Z,38.60
2018-02-15T06:52:35.036Z,30.33
2018-02-15T06:55:03.647Z,34.80
2018-02-15T06:57:32.194Z,31.87
2018-02-15T07:00:00.744Z,36.60
2018-02-15T07:02:29.344Z,33.33
2018-02-15T07:04:58.656Z,33.07
2018-02-15T07:07:27.232Z,32.77
2018-02-15T07:09:56.990Z,29.47
2018-02-15T07:12:25.540Z,34.50
2018-02-15T07:14:54.088Z,36.70
2018-02-15T07:17:22.840Z,27.53
2018-02-15T07:19:51.388Z,31.70
2018-02-15T07:22:19.944Z,28.77
2018-02-15T07:24:49.732Z,34.93
2018-02-15T07:27:18.276Z,25.87
2018-02-15T07:29:46.832Z,26.23
2018-02-15T07:32:16.286Z,24.97
2018-02-15T07:34:44.831Z,26.33
2018-02-15T07:37:14.146Z,32.07
2018-02-15T07:39:43.057Z,33.20
2018-02-15T07:42:11.611Z,40.13
2018-02-15T07:44:40.167Z,37.20
2018-02-15T07:47:09.727Z,35.17
2018-02-15T07:49:38.316Z,30.67
2018-02-15T07:52:06.900Z,27.00
2018-02-15T07:54:35.608Z,40.30
2018-02-15T07:57:04.183Z,30.43
2018-02-15T07:59:32.764Z,30.90
2018-02-15T08:02:01.747Z,25.00
2018-02-15T08:04:30.296Z,30.37
2018-02-15T08:06:58.852Z,33.73
2018-02-15T08:09:28.215Z,32.00
2018-02-15T08:11:56.771Z,32.67
2018-02-15T08:14:25.328Z,28.53
2018-02-15T08:16:54.836Z,20.23
2018-02-15T08:19:24.156Z,24.47
2018-02-15T08:21:52.707Z,32.33
2018-02-15T08:24:22.264Z,26.90
2018-02-15T08:26:50.816Z,21.60
2018-02-15T08:29:19.367Z,20.63
2018-02-15T08:31:48.332Z,18.40
2018-02-15T08:34:16.880Z,18.73
2018-02-15T08:36:45.440Z,17.47
2018-02-15T08:39:15.016Z,19.97
2018-02-15T08:41:43.583Z,20.93
2018-02-15T08:44:12.140Z,20.13
2018-02-15T08:46:40.963Z,18.00
2018-02-15T08:49:09.523Z,17.20
2018-02-15T08:51:38.072Z,20.93
2018-02-15T08:54:07.435Z,17.53
2018-02-15T08:56:35.984Z,16.87
2018-02-15T08:59:04.539Z,18.10
2018-02-15T09:01:33.912Z,19.60
2018-02-15T09:04:02.472Z,18.80
2018-02-15T09:06:31.020Z,20.07
2018-02-15T09:08:59.851Z,20.90
2018-02-15T09:11:28.400Z,18.23
2018-02-15T09:13:56.952Z,16.93
2018-02-15T09:16:26.628Z,17.70
2018-02-15T09:18:55.230Z,17.10
2018-02-15T09:21:23.816Z,15.23
2018-02-15T09:23:52.756Z,17.50
2018-02-15T09:26:21.312Z,14.43
2018-02-15T09:28:50.628Z,16.87
2018-02-15T09:31:19.239Z,14.73
2018-02-15T09:33:47.788Z,14.90
2018-02-15T09:36:17.105Z,14.37
2018-02-15T09:38:46.131Z,15.80
2018-02-15T09:41:14.684Z,14.17
2018-02-15T09:43:43.239Z,13.60
2018-02-15T09:46:12.604Z,12.17
2018-02-15T09:48:41.155Z,15.47
2018-02-15T09:51:09.699Z,12.30
2018-02-15T09:53:39.072Z,13.63
2018-02-15T09:56:07.632Z,12.63
2018-02-15T09:58:36.229Z,13.17
2018-02-15T10:01:05.591Z,12.73
2018-02-15T10:03:34.914Z,14.23
2018-02-15T10:06:03.473Z,16.70
2018-02-15T10:08:32.075Z,14.67
2018-02-15T10:11:00.628Z,14.60
2018-02-15T10:13:29.941Z,15.37
2018-02-15T10:15:59.308Z,24.23
2018-02-15T10:18:27.864Z,33.90
2018-02-15T10:20:56.420Z,15.07
2018-02-15T10:23:25.032Z,14.23
2018-02-15T10:25:53.580Z,23.63
2018-02-15T10:28:22.144Z,16.40
2018-02-15T10:30:51.704Z,18.67
2018-02-15T10:33:20.260Z,18.97
2018-02-15T10:35:48.819Z,18.87
2018-02-15T10:38:18.191Z,18.27
2018-02-15T10:40:46.757Z,16.93
2018-02-15T10:43:16.120Z,18.27
2018-02-15T10:45:45.049Z,19.23
2018-02-15T10:48:13.612Z,16.07
2018-02-15T10:50:42.176Z,14.53
2018-02-15T10:53:11.005Z,16.53
2018-02-15T10:55:39.561Z,16.20
2018-02-15T10:58:08.116Z,16.90
2018-02-15T11:00:42.949Z,16.13
2018-02-15T11:03:17.632Z,14.53
2018-02-15T11:05:46.260Z,13.83
2018-02-15T11:08:15.583Z,15.03
2018-02-15T11:10:44.144Z,16.47
2018-02-15T11:13:13.525Z,16.57
2018-02-15T11:15:42.085Z,16.80
2018-02-15T11:18:10.667Z,19.27
2018-02-15T11:20:39.285Z,30.13
2018-02-15T11:23:08.620Z,16.67
2018-02-15T11:25:37.184Z,14.30
2018-02-15T11:28:06.577Z,20.43
2018-02-15T11:30:35.905Z,16.43
2018-02-15T11:33:04.470Z,16.13
2018-02-15T11:35:34.023Z,13.90
2018-02-15T11:38:02.605Z,15.20
2018-02-15T11:40:31.163Z,25.20
2018-02-15T11:42:59.777Z,14.33
2018-02-15T11:45:28.352Z,22.77
2018-02-15T11:47:56.916Z,14.67
2018-02-15T11:50:25.532Z,16.27
2018-02-15T11:52:54.848Z,31.13
2018-02-15T11:55:24.204Z,13.90
2018-02-15T11:57:52.821Z,14.87
2018-02-15T12:00:21.401Z,15.40
2018-02-15T12:02:49.984Z,13.47
2018-02-15T12:05:18.592Z,13.57
2018-02-15T12:07:47.156Z,14.60
2018-02-15T12:10:15.720Z,10.43
2018-02-15T12:12:44.336Z,11.57
2018-02-15T12:15:12.916Z,9.13
2018-02-15T12:17:42.296Z,13.70
2018-02-15T12:20:11.313Z,11.93
2018-02-15T12:22:39.876Z,12.53
2018-02-15T12:25:08.432Z,9.70
2018-02-15T12:27:37.240Z,10.03
2018-02-15T12:30:05.852Z,9.53
2018-02-15T12:32:34.424Z,10.67
2018-02-15T12:35:03.412Z,18.50
2018-02-15T12:37:31.975Z,11.83
2018-02-15T12:40:00.527Z,10.00
2018-02-15T12:42:29.904Z,10.03
2018-02-15T12:44:58.462Z,13.77
2018-02-15T12:47:27.021Z,10.63
2018-02-15T12:49:55.631Z,8.73
2018-02-15T12:52:24.185Z,9.57
2018-02-15T12:54:52.737Z,9.17
2018-02-15T12:57:22.209Z,15.30
2018-02-15T12:59:53.204Z,56.53
2018-02-15T13:02:21.768Z,16.63
2018-02-15T13:04:51.129Z,12.53
2018-02-15T13:07:19.681Z,16.67
2018-02-15T13:09:48.267Z,11.27
2018-02-15T13:12:34.660Z,13.13
2018-02-15T13:15:03.289Z,12.50
2018-02-15T13:17:31.850Z,9.90
2018-02-15T13:20:09.038Z,11.23
2018-02-15T13:22:56.196Z,10.27
2018-02-15T13:25:25.568Z,9.67
2018-02-15T13:28:11.762Z,11.27
2018-02-15T13:30:40.448Z,15.83
2018-02-15T13:33:09.004Z,12.63
2018-02-15T13:35:37.561Z,12.93
2018-02-15T13:38:06.392Z,17.30
2018-02-15T13:40:34.951Z,17.70
2018-02-15T13:43:03.500Z,13.73
2018-02-15T13:45:32.970Z,21.03
2018-02-15T13:48:01.520Z,14.97
2018-02-15T13:50:30.084Z,32.87
2018-02-15T13:52:59.636Z,29.93
2018-02-15T13:55:28.270Z,13.40
2018-02-15T13:57:57.738Z,12.60
2018-02-15T14:00:26.517Z,10.47
2018-02-15T14:02:55.197Z,18.50
2018-02-15T14:05:23.893Z,17.37
2018-02-15T14:07:52.634Z,11.57
2018-02-15T14:10:21.263Z,14.63
2018-02-15T14:12:49.894Z,17.67
2018-02-15T14:15:19.652Z,13.63
2018-02-15T14:17:48.306Z,11.73
2018-02-15T14:20:17.025Z,11.50
2018-02-15T14:22:45.817Z,14.63
2018-02-15T14:25:14.507Z,15.83
2018-02-15T14:27:43.056Z,20.50
2018-02-15T14:30:11.758Z,26.67
2018-02-15T14:32:40.319Z,17.00
2018-02-15T14:35:08.877Z,23.37
2018-02-15T14:37:38.543Z,27.10
2018-02-15T14:40:07.089Z,23.87
2018-02-15T14:42:35.639Z,26.27
2018-02-15T14:45:05.017Z,27.03
2018-02-15T14:47:34.341Z,30.97
2018-02-15T14:50:03.685Z,33.00
2018-02-15T14:52:32.607Z,23.17
2018-02-15T14:55:01.165Z,35.90
2018-02-15T14:57:29.734Z,42.43
2018-02-15T14:59:58.356Z,100.70
2018-02-15T15:02:27.002Z,81.67
2018-02-15T15:04:55.741Z,68.97
2018-02-15T15:07:24.468Z,65.30
2018-02-15T15:09:53.024Z,30.30
2018-02-15T15:12:21.576Z,64.73
2018-02-15T15:14:50.276Z,31.40
2018-02-15T15:17:18.836Z,136.00
2018-02-15T15:19:47.397Z,128.80
2018-02-15T15:22:16.223Z,80.87
2018-02-15T15:24:44.776Z,54.73
2018-02-15T15:27:13.337Z,69.40
2018-02-15T15:29:43.091Z,54.23
2018-02-15T15:32:11.652Z,29.53
2018-02-15T15:34:40.206Z,35.53
2018-02-15T15:37:09.580Z,62.23
2018-02-15T15:39:38.157Z,57.60
2018-02-15T15:42:06.708Z,33.07
2018-02-15T15:44:35.316Z,56.77
2018-02-15T15:47:03.876Z,80.47
2018-02-15T15:49:32.439Z,163.73
2018-02-15T15:52:01.373Z,154.13
2018-02-15T15:54:29.948Z,183.77
2018-02-15T15:56:58.537Z,131.37
2018-02-15T15:59:27.232Z,128.37
2018-02-15T16:01:56.588Z,171.43
2018-02-15T16:04:30.072Z,120.70
2018-02-15T16:06:58.668Z,75.33
2018-02-15T16:09:28.296Z,81.03
2018-02-15T16:11:56.856Z,93.23
2018-02-15T16:14:26.180Z,88.97
2018-02-15T16:16:54.979Z,85.80
2018-02-15T16:19:23.532Z,90.70
2018-02-15T16:21:52.087Z,100.70
2018-02-15T16:24:21.453Z,115.97
2018-02-15T16:26:50.013Z,139.97
2018-02-15T16:29:18.612Z,151.90
2018-02-15T16:31:47.365Z,142.33
2018-02-15T16:34:16.688Z,142.73
2018-02-15T16:36:45.245Z,149.07
2018-02-15T16:39:14.624Z,168.33
2018-02-15T16:41:43.436Z,162.53
2018-02-15T16:44:11.997Z,168.10
2018-02-15T16:46:40.597Z,204.30
2018-02-15T16:49:09.924Z,253.03
2018-02-15T16:51:38.484Z,374.13
2018-02-15T16:54:08.037Z,382.97
2018-02-15T16:56:36.594Z,302.07
2018-02-15T16:59:05.160Z,299.33
2018-02-15T17:01:33.780Z,296.33
2018-02-15T17:04:02.380Z,266.10
2018-02-15T17:06:30.944Z,286.47
2018-02-15T17:08:59.660Z,250.67
2018-02-15T17:11:28.240Z,557.03
2018-02-15T17:13:56.810Z,421.33
2018-02-15T17:16:25.423Z,410.17
2018-02-15T17:18:54.018Z,245.07
2018-02-15T17:21:23.348Z,188.57
2018-02-15T17:23:52.168Z,353.33
2018-02-15T17:26:20.756Z,359.77
2018-02-15T17:28:49.317Z,351.13
2018-02-15T17:31:18.225Z,351.90
2018-02-15T17:33:46.787Z,378.73
2018-02-15T17:36:15.356Z,393.40
2018-02-15T17:38:44.244Z,293.60
2018-02-15T17:41:12.816Z,315.60
2018-02-15T17:43:42.180Z,214.23
2018-02-15T17:46:10.876Z,206.30
2018-02-15T17:48:39.445Z,195.50
2018-02-15T17:51:08.009Z,182.50
2018-02-15T17:53:36.625Z,158.53
2018-02-15T17:56:05.187Z,203.60
2018-02-15T17:58:33.745Z,189.97
2018-02-15T18:01:02.660Z,162.90
2018-02-15T18:03:31.217Z,199.87
2018-02-15T18:05:59.777Z,144.10
2018-02-15T18:08:29.332Z,185.77
2018-02-15T18:10:58.052Z,207.53
2018-02-15T18:13:26.611Z,143.03
2018-02-15T18:15:55.308Z,266.80
2018-02-15T18:18:23.871Z,100.33
2018-02-15T18:20:53.203Z,95.53
2018-02-15T18:23:22.580Z,78.20
2018-02-15T18:25:51.132Z,60.13
2018-02-15T18:28:19.692Z,37.07
2018-02-15T18:30:48.392Z,96.13
2018-02-15T18:33:16.972Z,29.03
2018-02-15T18:35:45.593Z,41.30
2018-02-15T18:38:14.216Z,22.23
2018-02-15T18:40:43.549Z,19.47
2018-02-15T18:43:12.112Z,21.67
2018-02-15T18:45:42.534Z,16.87
2018-02-15T18:48:11.852Z,90.20
2018-02-15T18:50:40.434Z,92.80
2018-02-15T18:53:09.176Z,40.80
2018-02-15T18:55:37.741Z,47.33
2018-02-15T18:58:06.734Z,46.50
2018-02-15T19:00:35.629Z,46.53
2018-02-15T19:03:04.200Z,51.37
2018-02-15T19:05:32.769Z,144.20
2018-02-15T19:08:01.483Z,42.47
2018-02-15T19:17:15.572Z,16.63
2018-02-15T19:19:44.257Z,16.83
2018-02-15T19:22:12.839Z,17.50
2018-02-15T19:24:44.394Z,16.03
2018-02-15T19:27:13.068Z,16.17
2018-02-15T19:29:45.513Z,20.63
2018-02-15T19:32:15.224Z,22.47
2018-02-15T19:34:43.893Z,17.87
2018-02-15T19:37:13.365Z,16.47
2018-02-15T19:39:42.039Z,15.37
2018-02-15T19:42:10.604Z,17.37
2018-02-15T19:44:39.418Z,34.77
2018-02-15T19:47:07.996Z,18.57
2018-02-15T19:49:36.566Z,18.50
2018-02-15T19:52:05.280Z,19.07
2018-02-15T19:54:33.841Z,23.53
2018-02-15T19:57:03.172Z,28.20
2018-02-15T19:59:31.801Z,16.33
2018-02-15T20:02:01.121Z,16.47
2018-02-15T20:04:29.684Z,15.70
2018-02-15T20:06:59.065Z,14.97
2018-02-15T20:09:27.737Z,16.33
2018-02-15T20:11:56.297Z,15.27
2018-02-15T20:14:25.105Z,14.93
2018-02-15T20:16:53.669Z,16.07
2018-02-15T20:19:25.925Z,16.47
2018-02-15T20:21:54.496Z,16.00
2018-02-15T20:24:23.057Z,17.57
2018-02-15T20:26:58.212Z,17.63
2018-02-15T20:29:26.775Z,16.47
2018-02-15T20:31:56.125Z,17.00
2018-02-15T20:34:24.937Z,251.37
2018-02-15T20:36:53.511Z,299.23
2018-02-15T20:39:27.934Z,27.70
2018-02-15T20:41:56.497Z,25.10
2018-02-15T20:44:25.060Z,72.50
2018-02-15T20:46:53.768Z,21.40
2018-02-15T20:49:27.720Z,18.93
2018-02-15T20:52:01.795Z,18.80
2018-02-15T20:54:35.888Z,73.13
2018-02-15T20:57:04.591Z,21.30
2018-02-15T20:59:33.146Z,20.83
2018-02-15T21:02:01.705Z,20.30
2018-02-15T21:04:30.308Z,19.50
2018-02-15T21:06:58.872Z,28.87
2018-02-15T21:09:28.196Z,24.07
2018-02-15T21:11:56.793Z,23.77
2018-02-15T21:14:25.356Z,18.93
2018-02-15T21:16:53.912Z,20.37
2018-02-15T21:19:22.612Z,17.50
2018-02-15T21:21:51.940Z,18.33
2018-02-15T21:24:20.504Z,20.20
2018-02-15T21:26:50.150Z,18.33
2018-02-15T21:29:18.707Z,18.47
2018-02-15T21:31:47.264Z,22.17
2018-02-15T21:34:16.837Z,21.50
2018-02-15T21:36:45.420Z,22.80
2018-02-15T21:39:13.984Z,19.63
2018-02-15T21:41:42.601Z,19.50
2018-02-15T21:44:11.166Z,21.23
2018-02-15T21:46:39.715Z,21.73
2018-02-15T21:49:08.405Z,20.07
2018-02-15T21:51:36.953Z,20.97
2018-02-15T21:54:05.503Z,20.50
2018-02-15T21:56:34.196Z,20.37
2018-02-15T21:59:02.748Z,22.23
2018-02-15T22:01:31.309Z,23.47
2018-02-15T22:03:59.915Z,25.33
2018-02-15T22:06:28.468Z,26.47
2018-02-15T22:08:57.790Z,27.07
2018-02-15T22:11:26.402Z,28.43
2018-02-15T22:13:55.754Z,33.77
2018-02-15T22:16:25.094Z,30.73
2018-02-15T22:18:53.894Z,33.47
2018-02-15T22:21:22.482Z,31.13
2018-02-15T22:23:51.051Z,32.97
2018-02-15T22:26:19.755Z,36.03
2018-02-15T22:28:48.312Z,37.70
2018-02-15T22:31:16.868Z,37.77
2018-02-15T22:33:45.805Z,29.87
2018-02-15T22:36:14.363Z,28.57
2018-02-15T22:38:43.260Z,27.07
2018-02-15T22:41:12.058Z,23.53
2018-02-15T22:43:40.616Z,18.60
2018-02-15T22:46:09.184Z,17.50
2018-02-15T22:48:37.788Z,16.50
2018-02-15T22:51:06.339Z,14.10
2018-02-15T22:53:35.660Z,16.23
2018-02-15T22:56:04.273Z,14.10
2018-02-15T22:58:32.824Z,11.70
2018-02-15T23:01:01.404Z,12.70
2018-02-15T23:03:30.232Z,13.03
2018-02-15T23:05:58.790Z,13.60
2018-02-15T23:08:27.343Z,12.57
2018-02-15T23:10:56.720Z,14.77
2018-02-15T23:13:25.284Z,13.50
2018-02-15T23:15:53.832Z,12.10
2018-02-15T23:18:22.449Z,13.57
2018-02-15T23:20:51.000Z,12.20
2018-02-15T23:23:19.560Z,12.27
2018-02-15T23:25:48.921Z,13.20
2018-02-15T23:28:17.476Z,14.20
2018-02-15T23:30:46.036Z,14.47
2018-02-15T23:33:14.864Z,12.33
2018-02-15T23:35:43.420Z,13.93
2018-02-15T23:38:11.977Z,14.03
2018-02-15T23:40:41.536Z,12.37
2018-02-15T23:43:10.092Z,12.80
2018-02-15T23:45:38.647Z,13.47
2018-02-15T23:48:08.017Z,14.20
2018-02-15T23:50:36.596Z,13.20
2018-02-15T23:53:05.155Z,11.93
2018-02-15T23:55:33.763Z,11.77
2018-02-15T23:58:02.316Z,11.97
